Time;durP1;ratioP1;P1;durP2;ratioP2;P2;SDS_P1;SDS_P2;PMS_P1;PMS_P2;Temp;Humidity;BMP_temperature;BMP_pressure;BME280_temperature;BME280_humidity;BME280_pressure;Samples;Min_cycle;Max_cycle;Signal;HPM_P1;HPM_P2
2021/04/24 00:01:43;;;;;;;10.98;7.00;;;;;;;11.72;63.18;100575.80;1700429;83;22005;-66
2021/04/24 00:04:16;;;;;;;12.93;7.58;;;;;;;11.74;63.23;100577.80;1694371;83;21286;-65
2021/04/24 00:06:49;;;;;;;13.90;7.67;;;;;;;11.74;63.28;100569.93;1688651;82;21165;-65
2021/04/24 00:09:22;;;;;;;13.18;8.10;;;;;;;11.75;63.36;100560.27;1717649;82;21291;-65
2021/04/24 00:11:55;;;;;;;26.87;11.43;;;;;;;11.77;63.95;100560.48;1719053;82;21160;-64
2021/04/24 00:14:29;;;;;;;13.13;7.58;;;;;;;11.78;64.29;100568.69;1672956;84;21334;-64
2021/04/24 00:17:02;;;;;;;14.23;7.57;;;;;;;11.76;64.85;100575.86;1679564;84;21351;-65
2021/04/24 00:19:35;;;;;;;13.78;7.05;;;;;;;11.73;65.36;100572.67;1727796;79;21337;-65
2021/04/24 00:22:08;;;;;;;15.30;8.53;;;;;;;11.70;65.54;100561.16;1732470;81;21168;-67
2021/04/24 00:24:41;;;;;;;12.43;8.13;;;;;;;11.66;65.83;100550.55;1729202;81;21746;-65
2021/04/24 00:27:14;;;;;;;13.38;8.48;;;;;;;11.62;66.09;100553.94;1731004;81;21282;-65
2021/04/24 00:29:48;;;;;;;11.80;7.62;;;;;;;11.62;66.35;100562.28;1721727;80;21322;-65
2021/04/24 00:32:21;;;;;;;12.37;6.63;;;;;;;11.61;66.50;100554.88;1739525;81;21898;-65
2021/04/24 00:34:54;;;;;;;13.50;7.70;;;;;;;11.61;66.72;100560.64;1729005;80;21833;-65
2021/04/24 00:37:27;;;;;;;13.23;7.80;;;;;;;11.61;66.89;100558.82;1732209;81;21786;-64
2021/04/24 00:40:00;;;;;;;15.03;7.63;;;;;;;11.59;67.04;100553.36;1723717;81;22049;-65
2021/04/24 00:42:35;;;;;;;12.40;7.83;;;;;;;11.59;67.19;100545.50;1741432;81;21813;-64
2021/04/24 00:45:10;;;;;;;12.58;7.67;;;;;;;11.59;67.37;100540.25;1726260;80;21285;-64
2021/04/24 00:47:46;;;;;;;16.90;8.05;;;;;;;11.58;67.35;100537.30;1732596;81;21290;-65
2021/04/24 00:50:22;;;;;;;18.85;8.40;;;;;;;11.55;67.43;100527.91;1740448;80;21287;-65
2021/04/24 00:52:55;;;;;;;11.50;7.62;;;;;;;11.53;67.57;100525.91;1734101;81;21799;-64
2021/04/24 00:55:29;;;;;;;22.25;7.60;;;;;;;11.52;67.57;100533.41;1736294;80;21349;-63
2021/04/24 00:58:03;;;;;;;12.00;7.67;;;;;;;11.51;67.54;100534.40;1725728;81;21356;-65
2021/04/24 01:00:35;;;;;;;12.25;7.33;;;;;;;11.48;67.65;100539.91;1727358;80;21231;-64
2021/04/24 01:03:09;;;;;;;10.57;7.33;;;;;;;11.45;67.82;100533.13;1727756;80;21305;-66
2021/04/24 01:05:42;;;;;;;14.43;8.45;;;;;;;11.41;67.91;100529.61;1731596;81;21470;-65
2021/04/24 01:08:15;;;;;;;17.07;8.35;;;;;;;11.37;68.18;100530.81;1706365;82;21342;-64
2021/04/24 01:10:49;;;;;;;12.98;7.03;;;;;;;11.31;68.15;100523.03;1731432;81;21176;-64
2021/04/24 01:13:22;;;;;;;13.20;7.17;;;;;;;11.28;68.25;100525.08;1726446;81;21290;-65
2021/04/24 01:15:55;;;;;;;16.80;7.13;;;;;;;11.26;68.37;100518.67;1736275;80;21281;-65
2021/04/24 01:18:28;;;;;;;15.88;7.75;;;;;;;11.25;68.41;100511.75;1731817;80;21844;-65
2021/04/24 01:21:01;;;;;;;11.43;7.10;;;;;;;11.26;68.40;100504.26;1729932;81;21843;-65
2021/04/24 01:23:35;;;;;;;14.68;7.87;;;;;;;11.28;68.48;100502.80;1724169;81;21321;-65
2021/04/24 01:26:08;;;;;;;13.08;7.40;;;;;;;11.28;68.58;100491.00;1725081;81;21325;-63
2021/04/24 01:28:41;;;;;;;14.13;7.33;;;;;;;11.28;68.62;100483.14;1721035;82;21207;-65
2021/04/24 01:31:16;;;;;;;14.07;7.15;;;;;;;11.29;68.51;100487.44;1674543;84;21726;-65
2021/04/24 01:33:50;;;;;;;14.20;7.20;;;;;;;11.31;68.66;100482.88;1683326;84;21899;-65
2021/04/24 01:36:23;;;;;;;14.83;8.60;;;;;;;11.33;68.57;100472.61;1713382;82;21366;-65
2021/04/24 01:38:56;;;;;;;12.13;7.80;;;;;;;11.34;68.60;100476.88;1718876;82;21333;-66
2021/04/24 01:41:29;;;;;;;12.67;7.60;;;;;;;11.34;68.57;100473.45;1720146;82;21277;-64
2021/04/24 01:44:02;;;;;;;13.25;6.60;;;;;;;11.31;68.45;100466.68;1679762;84;21302;-66
2021/04/24 01:46:35;;;;;;;11.83;6.37;;;;;;;11.28;68.36;100473.50;1714772;82;21257;-64
2021/04/24 01:49:08;;;;;;;14.20;7.60;;;;;;;11.27;68.39;100471.02;1688524;82;21331;-63
2021/04/24 01:51:41;;;;;;;12.63;6.17;;;;;;;11.26;68.43;100470.19;1680985;83;21833;-65
2021/04/24 01:54:14;;;;;;;15.80;7.77;;;;;;;11.25;68.51;100465.89;1677393;83;21290;-65
2021/04/24 01:56:52;;;;;;;13.25;7.05;;;;;;;11.26;68.54;100460.17;1675412;84;21381;-65
2021/04/24 01:59:32;;;;;;;12.28;6.87;;;;;;;11.25;68.47;100458.03;1675536;84;21850;-67
2021/04/24 02:02:05;;;;;;;13.98;7.37;;;;;;;11.24;68.47;100452.94;1717103;82;21330;-65
2021/04/24 02:04:38;;;;;;;20.77;8.13;;;;;;;11.24;68.50;100451.63;1716886;82;21354;-65
2021/04/24 02:07:12;;;;;;;13.53;7.10;;;;;;;11.22;68.50;100449.16;1719849;82;21322;-66
2021/04/24 02:09:46;;;;;;;10.98;6.60;;;;;;;11.23;68.63;100440.31;1721908;82;21279;-63
2021/04/24 02:12:18;;;;;;;10.18;6.42;;;;;;;11.23;68.58;100439.00;1718162;82;21294;-67
2021/04/24 02:14:52;;;;;;;15.23;8.30;;;;;;;11.25;68.59;100435.76;1718349;82;21286;-66
2021/04/24 02:17:27;;;;;;;12.37;7.15;;;;;;;11.26;68.68;100440.05;1720264;82;21366;-65
2021/04/24 02:20:01;;;;;;;12.90;7.90;;;;;;;11.25;68.70;100435.76;1699918;82;21290;-65
2021/04/24 02:22:34;;;;;;;12.68;7.85;;;;;;;11.24;68.80;100430.66;1719971;82;21848;-67
2021/04/24 02:25:08;;;;;;;15.13;7.27;;;;;;;11.24;68.87;100436.73;1721611;82;21419;-64
2021/04/24 02:27:41;;;;;;;15.70;8.15;;;;;;;11.25;68.82;100436.23;1719565;82;21338;-64
2021/04/24 02:30:18;;;;;;;14.95;8.48;;;;;;;11.25;68.78;100433.14;1716216;82;21176;-65
2021/04/24 02:32:52;;;;;;;12.13;7.53;;;;;;;11.26;68.77;100426.11;1717756;82;21139;-65
2021/04/24 02:35:44;;;;;;;15.00;7.50;;;;;;;11.24;68.72;100418.87;1719466;82;21285;-65
2021/04/24 02:38:27;;;;;;;10.90;7.83;;;;;;;11.24;68.79;100415.77;1720317;82;22408;-64
2021/04/24 02:41:02;;;;;;;12.18;7.45;;;;;;;11.26;68.75;100419.55;1716448;82;21337;-64
2021/04/24 02:43:35;;;;;;;14.78;7.53;;;;;;;11.27;68.66;100414.67;1714465;82;21726;-65
2021/04/24 02:46:08;;;;;;;;;;;;;;;11.28;68.48;100416.31;1720959;82;21734;-65
2021/04/24 02:48:41;;;;;;;14.65;7.00;;;;;;;11.30;68.42;100423.55;1712577;82;20233;-64
2021/04/24 02:51:14;;;;;;;15.38;7.40;;;;;;;11.30;68.32;100411.76;1718020;82;21653;-65
2021/04/24 02:53:47;;;;;;;13.10;7.50;;;;;;;11.31;68.18;100410.33;1718314;82;21183;-65
2021/04/24 02:56:21;;;;;;;14.85;7.65;;;;;;;11.32;68.12;100408.03;1718553;82;21180;-65
2021/04/24 02:58:55;;;;;;;14.03;7.75;;;;;;;11.32;67.84;100404.61;1708555;82;21800;-64
2021/04/24 03:01:28;;;;;;;14.70;8.58;;;;;;;11.33;67.88;100409.70;1719727;82;21881;-65
2021/04/24 03:04:01;;;;;;;12.87;8.27;;;;;;;11.32;67.59;100405.92;1674533;84;21275;-64
2021/04/24 03:06:35;;;;;;;17.17;7.80;;;;;;;11.32;67.55;100409.34;1668171;84;21187;-65
2021/04/24 03:09:08;;;;;;;13.50;7.07;;;;;;;11.35;67.44;100409.55;1722304;81;21290;-65
2021/04/24 03:11:41;;;;;;;10.65;6.95;;;;;;;11.38;67.42;100407.50;1734251;81;21590;-65
2021/04/24 03:14:14;;;;;;;13.32;7.95;;;;;;;11.43;67.34;100405.78;1736141;81;21266;-65
2021/04/24 03:16:47;;;;;;;;;;;;;;;11.49;67.27;100396.03;1732973;81;21151;-66
2021/04/24 03:19:20;;;;;;;17.85;8.03;;;;;;;11.51;66.99;100400.69;1705756;82;20249;-65
2021/04/24 03:21:53;;;;;;;15.40;7.90;;;;;;;11.49;66.98;100392.94;1733261;80;21279;-65
2021/04/24 03:24:26;;;;;;;18.50;8.33;;;;;;;11.53;66.90;100393.98;1724639;81;21337;-65
2021/04/24 03:26:59;;;;;;;18.35;8.60;;;;;;;11.55;66.67;100386.80;1723360;81;21294;-65
2021/04/24 03:29:32;;;;;;;15.67;8.20;;;;;;;11.59;66.53;100387.69;1738447;81;21176;-64
2021/04/24 03:32:06;;;;;;;14.33;8.50;;;;;;;11.61;66.10;100382.33;1729237;81;21279;-64
2021/04/24 03:34:40;;;;;;;16.67;9.30;;;;;;;11.60;66.01;100385.91;1728028;81;21215;-65
2021/04/24 03:37:13;;;;;;;15.80;9.20;;;;;;;11.56;65.82;100385.34;1719710;82;21318;-65
2021/04/24 03:39:47;;;;;;;16.07;8.83;;;;;;;11.55;65.95;100386.80;1687103;84;21903;-65
2021/04/24 03:42:20;;;;;;;17.10;8.50;;;;;;;11.53;66.00;100387.75;1695541;82;21342;-64
2021/04/24 03:44:53;;;;;;;14.53;8.33;;;;;;;11.53;66.09;100388.73;1682613;84;21298;-66
2021/04/24 03:47:26;;;;;;;15.32;8.25;;;;;;;11.53;66.15;100390.38;1684472;82;21215;-65
2021/04/24 03:49:59;;;;;;;14.45;8.85;;;;;;;11.53;66.30;100391.69;1677809;84;21288;-66
2021/04/24 03:52:33;;;;;;;16.23;9.35;;;;;;;11.53;66.32;100391.69;1677625;84;21380;-65
2021/04/24 03:55:08;;;;;;;16.30;9.58;;;;;;;11.56;66.44;100389.27;1695159;81;21904;-66
2021/04/24 03:57:42;;;;;;;16.27;8.88;;;;;;;11.60;66.48;100385.42;1729248;81;21282;-66
2021/04/24 04:00:17;;;;;;;18.27;9.43;;;;;;;11.61;66.29;100376.58;1732097;81;21187;-64
2021/04/24 04:03:01;;;;;;;15.05;8.88;;;;;;;11.62;66.22;100385.27;1727103;81;21294;-65
2021/04/24 04:05:32;;;;;;;14.13;8.93;;;;;;;11.59;66.44;100382.45;1734396;81;21319;-65
2021/04/24 04:08:07;;;;;;;17.27;9.28;;;;;;;11.59;66.66;100382.45;1733531;80;21299;-64
2021/04/24 04:10:43;;;;;;;;;;;;;;;11.60;66.78;100381.97;1736729;81;21204;-65
2021/04/24 04:13:16;;;;;;;13.88;8.33;;;;;;;11.58;66.83;100387.36;1725840;81;20666;-64
2021/04/24 04:15:49;;;;;;;;;;;;;;;11.53;67.00;100388.27;1731712;81;21243;-66
2021/04/24 04:18:22;;;;;;;14.38;8.90;;;;;;;11.53;67.30;100392.67;1724324;81;20241;-66
2021/04/24 04:20:56;;;;;;;15.23;8.90;;;;;;;11.49;68.00;100393.41;1724596;81;21278;-65
2021/04/24 04:23:29;;;;;;;13.62;8.40;;;;;;;11.44;68.40;100394.31;1726453;81;21322;-66
2021/04/24 04:26:02;;;;;;;14.55;9.00;;;;;;;11.38;68.95;100400.12;1728453;80;21904;-67
2021/04/24 04:28:35;;;;;;;13.72;8.60;;;;;;;11.32;69.47;100394.13;1719100;82;21438;-66
2021/04/24 04:31:08;;;;;;;13.28;7.55;;;;;;;11.31;70.09;100405.56;1720056;82;21809;-65
2021/04/24 04:33:41;;;;;;;11.23;6.50;;;;;;;11.23;70.72;100407.55;1718452;82;21813;-65
2021/04/24 04:36:15;;;;;;;3.90;2.58;;;;;;;11.20;71.26;100419.61;1676435;84;21228;-64
2021/04/24 04:38:48;;;;;;;3.73;2.30;;;;;;;11.17;70.84;100413.83;1720312;80;21412;-64
2021/04/24 04:41:21;;;;;;;3.60;2.00;;;;;;;11.12;70.49;100427.81;1738889;81;21283;-65
2021/04/24 04:43:54;;;;;;;4.62;2.10;;;;;;;11.04;70.55;100432.89;1729999;80;21274;-64
2021/04/24 04:46:28;;;;;;;3.52;1.95;;;;;;;10.99;70.70;100444.25;1726709;81;21175;-65
2021/04/24 04:49:03;;;;;;;2.77;1.30;;;;;;;10.97;70.92;100449.63;1735355;81;21197;-68
2021/04/24 04:51:36;;;;;;;2.33;1.62;;;;;;;10.95;70.78;100455.48;1725954;81;21932;-66
2021/04/24 04:54:09;;;;;;;1.65;1.40;;;;;;;10.88;70.51;100460.91;1727375;81;21290;-66
2021/04/24 04:56:43;;;;;;;1.70;1.27;;;;;;;10.80;70.60;100469.90;1728054;80;21270;-67
2021/04/24 04:59:16;;;;;;;1.40;1.20;;;;;;;10.70;70.84;100463.31;1736739;80;21877;-68
2021/04/24 05:01:49;;;;;;;;;;;;;;;10.62;71.03;100474.95;1732733;80;21185;-67
2021/04/24 05:04:24;;;;;;;2.58;1.10;;;;;;;10.58;71.12;100483.20;1726561;81;20315;-65
2021/04/24 05:06:58;;;;;;;1.80;1.10;;;;;;;10.51;71.28;100491.19;1731596;81;21172;-66
2021/04/24 05:09:31;;;;;;;2.47;0.93;;;;;;;10.45;71.00;100506.95;1726102;81;21228;-65
2021/04/24 05:12:05;;;;;;;1.15;0.80;;;;;;;10.36;70.00;100514.75;1736966;81;21848;-66
2021/04/24 05:14:38;;;;;;;1.82;1.02;;;;;;;10.25;69.05;100516.09;1731932;81;21287;-67
2021/04/24 05:17:11;;;;;;;1.37;0.93;;;;;;;10.17;68.66;100529.84;1718757;82;21294;-67
2021/04/24 05:19:44;;;;;;;1.95;1.15;;;;;;;10.08;68.18;100539.70;1686258;84;21204;-68
2021/04/24 05:22:18;;;;;;;1.92;1.15;;;;;;;10.00;67.89;100531.67;1720669;82;21301;-66
2021/04/24 05:24:51;;;;;;;1.30;1.20;;;;;;;9.93;67.65;100533.13;1695138;83;21795;-65
2021/04/24 05:27:24;;;;;;;2.57;1.30;;;;;;;9.87;67.58;100542.30;1685133;81;21276;-67
2021/04/24 05:29:57;;;;;;;2.73;1.37;;;;;;;9.86;67.75;100548.97;1696248;81;21295;-65
2021/04/24 05:32:30;;;;;;;2.13;1.30;;;;;;;9.85;67.83;100553.36;1675444;84;21259;-64
2021/04/24 05:35:05;;;;;;;1.75;1.05;;;;;;;9.91;67.35;100552.05;1717923;82;21343;-63
2021/04/24 05:37:37;;;;;;;2.42;1.30;;;;;;;9.93;67.48;100555.36;1719002;82;21226;-64
2021/04/24 05:40:11;;;;;;;2.67;1.20;;;;;;;9.98;67.31;100558.44;1719518;82;21281;-64
2021/04/24 05:42:44;;;;;;;1.60;1.40;;;;;;;9.96;67.08;100566.38;1717606;82;21289;-65
2021/04/24 05:45:17;;;;;;;1.98;1.17;;;;;;;9.97;66.65;100564.61;1719385;82;21370;-64
2021/04/24 05:47:52;;;;;;;1.80;1.40;;;;;;;9.95;66.36;100565.22;1725640;81;21215;-63
2021/04/24 05:50:26;;;;;;;1.47;1.22;;;;;;;10.00;66.59;100563.06;1728847;81;21185;-65
2021/04/24 05:53:00;;;;;;;1.12;1.02;;;;;;;10.08;66.58;100560.16;1736935;80;21715;-64
2021/04/24 05:55:34;;;;;;;4.87;1.20;;;;;;;10.18;66.17;100557.64;1719575;81;21624;-66
2021/04/24 05:58:07;;;;;;;1.73;1.20;;;;;;;10.27;65.79;100560.00;1727461;81;21192;-65
2021/04/24 06:00:40;;;;;;;2.35;1.55;;;;;;;10.42;65.50;100564.78;1723824;81;21801;-64
2021/04/24 06:03:13;;;;;;;1.92;1.60;;;;;;;10.67;64.99;100570.13;1724456;81;21180;-68
2021/04/24 06:05:46;;;;;;;2.55;1.52;;;;;;;10.94;64.71;100566.45;1730589;81;21325;-65
2021/04/24 06:08:19;;;;;;;1.22;1.12;;;;;;;11.16;63.99;100568.06;1728173;81;21271;-65
2021/04/24 06:10:53;;;;;;;2.70;1.40;;;;;;;11.30;62.93;100563.77;1725696;81;21758;-68
2021/04/24 06:13:32;;;;;;;2.35;1.50;;;;;;;11.50;62.49;100566.34;1737479;81;21164;-67
2021/04/24 06:16:01;;;;;;;3.62;1.22;;;;;;;11.77;61.46;100572.30;1743414;80;23200;-67
2021/04/24 06:18:34;;;;;;;1.82;1.17;;;;;;;12.03;60.40;100572.11;1723484;81;21350;-66
2021/04/24 06:21:07;;;;;;;1.57;1.00;;;;;;;12.22;58.97;100575.69;1738822;81;21322;-66
2021/04/24 06:23:40;;;;;;;1.67;1.10;;;;;;;12.63;58.65;100575.38;1736333;81;21188;-67
2021/04/24 06:26:13;;;;;;;1.73;0.97;;;;;;;13.01;57.82;100578.38;1736066;81;21263;-66
2021/04/24 06:28:46;;;;;;;1.15;1.05;;;;;;;13.14;56.94;100589.41;1728824;81;21302;-66
2021/04/24 06:31:19;;;;;;;1.22;1.10;;;;;;;13.06;56.36;100597.20;1726793;80;21772;-64
2021/04/24 06:33:52;;;;;;;1.47;1.05;;;;;;;12.93;56.01;100592.70;1725899;81;21824;-66
2021/04/24 06:36:26;;;;;;;1.05;1.00;;;;;;;12.77;55.80;100597.26;1741353;81;21905;-66
2021/04/24 06:39:05;;;;;;;1.57;1.40;;;;;;;12.73;55.94;100600.63;1727521;81;21287;-65
2021/04/24 06:41:37;;;;;;;2.17;1.00;;;;;;;12.87;56.13;100600.70;1725323;81;21226;-66
2021/04/24 06:44:11;;;;;;;3.10;2.37;;;;;;;13.15;55.52;100608.17;1735990;81;21226;-66
2021/04/24 06:46:44;;;;;;;3.12;2.10;;;;;;;13.43;54.25;100610.68;1728912;80;21272;-67
2021/04/24 06:49:18;;;;;;;2.83;1.30;;;;;;;13.61;53.21;100609.91;1720199;80;21903;-65
2021/04/24 06:51:50;;;;;;;1.80;1.15;;;;;;;13.71;52.42;100610.69;1728586;81;21883;-67
2021/04/24 06:54:23;;;;;;;1.00;0.90;;;;;;;13.81;52.07;100610.95;1732417;81;21278;-66
2021/04/24 06:56:56;;;;;;;0.50;0.50;;;;;;;14.36;51.54;100614.80;1729762;80;21250;-67
2021/04/24 06:59:29;;;;;;;1.27;0.60;;;;;;;14.96;50.05;100612.64;1729664;81;21814;-65
2021/04/24 07:02:03;;;;;;;0.60;0.60;;;;;;;15.78;48.48;100602.82;1738906;81;21793;-66
2021/04/24 07:04:36;;;;;;;0.45;0.45;;;;;;;16.90;46.83;100599.92;1730816;81;21875;-65
2021/04/24 07:07:09;;;;;;;2.52;0.57;;;;;;;17.84;44.67;100600.77;1726624;80;21282;-64
2021/04/24 07:09:42;;;;;;;0.72;0.50;;;;;;;18.36;42.17;100582.35;1719668;81;21710;-64
2021/04/24 07:12:15;;;;;;;0.65;0.60;;;;;;;18.35;40.75;100592.62;1724407;80;21318;-63
2021/04/24 07:14:48;;;;;;;1.43;0.50;;;;;;;18.47;40.72;100601.34;1737250;81;21822;-63
2021/04/24 07:17:21;;;;;;;1.95;0.78;;;;;;;18.34;40.43;100606.89;1731169;81;21313;-65
2021/04/24 07:19:55;;;;;;;1.82;1.10;;;;;;;18.04;39.39;100598.81;1733871;81;21370;-64
2021/04/24 07:22:28;;;;;;;2.60;1.17;;;;;;;17.64;38.98;100591.11;1724579;81;21278;-64
2021/04/24 07:25:01;;;;;;;1.87;0.70;;;;;;;17.52;39.22;100596.95;1726878;81;21821;-64
2021/04/24 07:27:34;;;;;;;1.15;0.70;;;;;;;17.29;39.79;100598.18;1720138;81;21282;-65
2021/04/24 07:30:11;;;;;;;2.37;0.95;;;;;;;17.10;40.71;100599.37;1731978;81;21833;-64
2021/04/24 07:32:44;;;;;;;3.60;1.30;;;;;;;16.88;41.09;100601.92;1731987;81;21294;-66
2021/04/24 07:35:18;;;;;;;3.65;2.10;;;;;;;16.49;40.98;100601.75;1737395;81;21826;-64
2021/04/24 07:37:50;;;;;;;6.58;4.00;;;;;;;16.04;41.74;100609.66;1721774;81;21148;-64
2021/04/24 07:40:24;;;;;;;5.87;1.90;;;;;;;16.36;42.49;100608.84;1727914;80;21747;-66
2021/04/24 07:42:57;;;;;;;4.47;1.77;;;;;;;17.57;41.56;100613.14;1735800;80;21271;-65
2021/04/24 07:45:30;;;;;;;1.60;1.10;;;;;;;19.05;39.39;100607.26;1723726;81;21840;-63
2021/04/24 07:48:03;;;;;;;1.52;0.70;;;;;;;19.80;36.93;100607.84;1726998;80;21179;-64
2021/04/24 07:50:36;;;;;;;5.78;2.30;;;;;;;19.72;35.14;100612.46;1734259;81;21175;-62
2021/04/24 07:53:09;;;;;;;3.15;1.50;;;;;;;19.20;35.08;100618.69;1718333;82;21193;-67
2021/04/24 07:55:43;;;;;;;2.25;0.90;;;;;;;18.67;35.44;100629.52;1721128;82;21298;-64
2021/04/24 07:58:16;;;;;;;3.10;1.00;;;;;;;18.26;35.95;100625.00;1681273;84;21882;-65
2021/04/24 08:00:49;;;;;;;2.33;1.30;;;;;;;17.81;36.59;100630.24;1684923;84;21452;-62
2021/04/24 08:03:22;;;;;;;5.95;3.00;;;;;;;17.28;36.50;100634.39;1680399;84;21290;-65
2021/04/24 08:05:55;;;;;;;5.62;1.65;;;;;;;16.93;37.74;100652.49;1678508;84;21337;-66
2021/04/24 08:08:30;;;;;;;2.40;1.40;;;;;;;16.65;38.31;100644.89;1719016;80;21294;-65
2021/04/24 08:11:03;;;;;;;4.47;1.82;;;;;;;16.35;38.98;100637.59;1726516;81;21333;-64
2021/04/24 08:13:36;;;;;;;3.20;1.10;;;;;;;15.98;39.27;100645.94;1729468;81;21286;-64
2021/04/24 08:16:11;;;;;;;1.87;1.32;;;;;;;15.76;39.91;100644.40;1726030;81;21298;-65
2021/04/24 08:18:45;;;;;;;5.37;1.35;;;;;;;15.62;40.19;100649.77;1731077;81;21299;-66
2021/04/24 08:21:18;;;;;;;;;;;;;;;15.72;40.05;100649.16;1712046;82;21884;-65
2021/04/24 08:23:58;;;;;;;2.00;1.30;;;;;;;16.41;39.44;100640.89;1731885;81;20250;-66
2021/04/24 08:26:31;;;;;;;2.77;1.45;;;;;;;17.24;38.93;100642.32;1732761;81;21920;-65
2021/04/24 08:29:06;;;;;;;4.37;1.40;;;;;;;17.86;37.30;100620.79;1735762;81;21270;-66
2021/04/24 08:31:42;;;;;;;3.33;1.30;;;;;;;18.21;36.11;100631.33;1723179;81;21919;-65
2021/04/24 08:34:17;;;;;;;4.12;1.60;;;;;;;18.18;35.15;100640.45;1738487;81;21307;-66
2021/04/24 08:36:50;;;;;;;2.35;1.20;;;;;;;18.06;35.17;100635.72;1717578;82;21310;-65
2021/04/24 08:39:23;;;;;;;4.72;1.40;;;;;;;18.01;35.22;100638.06;1687291;82;21314;-65
2021/04/24 08:41:56;;;;;;;5.85;1.47;;;;;;;17.81;34.89;100641.67;1680069;84;22080;-65
2021/04/24 08:44:29;;;;;;;3.45;1.40;;;;;;;17.48;35.71;100638.28;1709978;82;21311;-64
2021/04/24 08:47:06;;;;;;;7.10;1.65;;;;;;;17.41;35.84;100638.64;1716997;82;21179;-65
2021/04/24 08:49:39;;;;;;;3.40;1.60;;;;;;;17.29;36.54;100645.81;1712550;81;21374;-64
2021/04/24 08:52:12;;;;;;;3.98;1.60;;;;;;;17.15;36.05;100642.52;1677283;82;21333;-64
2021/04/24 08:54:46;;;;;;;5.62;1.87;;;;;;;16.91;35.68;100643.38;1722806;81;21715;-65
2021/04/24 08:57:19;;;;;;;3.80;1.47;;;;;;;16.73;36.53;100641.42;1732462;80;21296;-63
2021/04/24 08:59:52;;;;;;;2.58;1.45;;;;;;;16.57;37.16;100638.80;1731467;81;21275;-64
2021/04/24 09:02:25;;;;;;;3.92;1.65;;;;;;;16.41;37.59;100642.70;1733268;80;21219;-67
2021/04/24 09:04:58;;;;;;;5.43;1.53;;;;;;;16.78;37.92;100643.91;1718720;81;21349;-67
2021/04/24 09:07:31;;;;;;;3.52;1.47;;;;;;;17.12;37.44;100639.73;1727836;81;21717;-68
2021/04/24 09:10:05;;;;;;;4.15;1.40;;;;;;;17.25;35.86;100633.41;1733501;81;21313;-67
2021/04/24 09:12:39;;;;;;;3.77;1.50;;;;;;;17.22;35.94;100634.26;1724751;81;21301;-65
2021/04/24 09:15:25;;;;;;;5.87;2.20;;;;;;;17.29;36.08;100639.20;1729726;81;21339;-66
2021/04/24 09:18:01;;;;;;;5.15;2.40;;;;;;;17.58;35.87;100646.05;1725855;80;21227;-66
2021/04/24 09:20:48;;;;;;;7.08;2.00;;;;;;;17.71;35.45;100646.84;1740399;81;21693;-64
2021/04/24 09:23:23;;;;;;;4.58;2.02;;;;;;;17.54;35.42;100654.02;1711126;81;21372;-65
2021/04/24 09:26:09;;;;;;;4.15;1.98;;;;;;;17.35;36.00;100645.95;1721812;81;21351;-65
2021/04/24 09:28:45;;;;;;;4.90;1.85;;;;;;;17.66;36.29;100643.87;1717663;81;21869;-66
2021/04/24 09:31:23;;;;;;;6.33;2.33;;;;;;;17.95;35.80;100634.80;1739076;81;21350;-64
2021/04/24 09:33:59;;;;;;;5.03;2.45;;;;;;;18.10;35.57;100635.19;1732274;82;21913;-68
2021/04/24 09:36:37;;;;;;;9.03;2.40;;;;;;;18.10;34.78;100643.14;1735093;80;21346;-67
2021/04/24 09:39:11;;;;;;;8.03;2.65;;;;;;;17.89;33.47;100653.52;1724769;81;21900;-66
2021/04/24 09:41:43;;;;;;;11.73;2.80;;;;;;;17.43;34.05;100677.66;1728415;81;21872;-65
2021/04/24 09:44:19;;;;;;;6.55;2.10;;;;;;;16.71;35.53;100689.69;1736189;80;21717;-63
2021/04/24 09:46:59;;;;;;;3.02;2.00;;;;;;;15.92;38.14;100703.85;1739089;80;21389;-62
2021/04/24 09:49:34;;;;;;;5.80;1.95;;;;;;;15.13;42.08;100703.22;1741673;81;21250;-64
2021/04/24 09:52:09;;;;;;;4.97;2.10;;;;;;;14.44;44.76;100705.28;1741560;81;21167;-64
2021/04/24 09:54:44;;;;;;;4.47;2.50;;;;;;;14.07;46.73;100705.34;1724708;81;21223;-63
2021/04/24 09:57:22;;;;;;;5.80;2.80;;;;;;;13.89;48.30;100703.17;1724985;81;21743;-65
2021/04/24 10:00:15;;;;;;;4.50;2.35;;;;;;;13.82;49.99;100709.99;1718521;81;21359;-66
2021/04/24 10:02:48;;;;;;;3.15;1.67;;;;;;;13.89;50.69;100707.59;1731127;81;21309;-66
2021/04/24 10:05:23;;;;;;;2.45;1.37;;;;;;;14.13;50.03;100711.84;1716919;82;21359;-68
2021/04/24 10:07:59;;;;;;;4.72;1.75;;;;;;;14.42;49.71;100707.73;1727326;81;21290;-67
2021/04/24 10:10:36;;;;;;;6.12;2.08;;;;;;;14.68;47.33;100696.78;1729250;81;21357;-66
2021/04/24 10:13:10;;;;;;;6.65;1.87;;;;;;;15.03;46.54;100698.04;1733448;81;21386;-63
2021/04/24 10:15:46;;;;;;;4.55;1.45;;;;;;;15.38;45.34;100688.70;1729702;81;21734;-62
2021/04/24 10:18:18;;;;;;;2.52;1.45;;;;;;;15.65;45.14;100694.33;1716706;81;21315;-61
2021/04/24 10:20:52;;;;;;;3.67;1.80;;;;;;;15.79;43.10;100683.16;1725177;82;21171;-64
2021/04/24 10:23:25;;;;;;;2.33;1.40;;;;;;;15.82;42.34;100678.06;1665810;84;21376;-65
2021/04/24 10:25:58;;;;;;;4.58;1.90;;;;;;;15.82;40.80;100674.94;1693544;83;21284;-67
2021/04/24 10:28:31;;;;;;;3.65;1.77;;;;;;;15.86;40.07;100680.70;1740257;80;21719;-60
2021/04/24 10:31:04;;;;;;;3.35;1.60;;;;;;;15.81;39.35;100671.95;1761934;80;21280;-65
2021/04/24 10:33:38;;;;;;;3.37;1.57;;;;;;;15.69;38.32;100675.86;1732592;80;21181;-68
2021/04/24 10:36:11;;;;;;;3.40;1.60;;;;;;;15.67;38.33;100671.23;1723306;81;21916;-68
2021/04/24 10:38:49;;;;;;;2.60;1.75;;;;;;;15.71;38.17;100671.27;1715458;81;21350;-67
2021/04/24 10:41:37;;;;;;;3.37;1.52;;;;;;;15.77;38.89;100676.39;1685022;83;21363;-66
2021/04/24 10:44:14;;;;;;;3.05;1.47;;;;;;;15.78;38.66;100682.02;1688851;81;21387;-62
2021/04/24 10:46:50;;;;;;;3.12;1.70;;;;;;;15.67;37.96;100686.23;1716618;81;21332;-66
2021/04/24 10:49:32;;;;;;;3.85;1.85;;;;;;;15.45;38.31;100692.41;1731363;81;21780;-68
2021/04/24 10:52:20;;;;;;;7.53;1.70;;;;;;;15.18;38.11;100712.34;1721726;81;21348;-68
2021/04/24 10:55:27;;;;;;;4.42;1.75;;;;;;;14.83;39.81;100728.22;1712996;82;21338;-67
2021/04/24 10:58:03;;;;;;;4.80;1.75;;;;;;;14.36;42.64;100740.75;1717922;81;21871;-64
2021/04/24 11:00:41;;;;;;;5.22;2.10;;;;;;;13.87;45.76;100738.02;1703240;81;21759;-64
2021/04/24 11:03:34;;;;;;;5.28;2.17;;;;;;;13.57;47.17;100747.94;1714809;81;21879;-65
2021/04/24 11:06:22;;;;;;;4.65;2.33;;;;;;;13.39;48.29;100753.13;1698310;82;21846;-66
2021/04/24 11:09:20;;;;;;;7.10;2.20;;;;;;;13.33;49.46;100745.31;1715045;82;21855;-66
2021/04/24 11:11:53;;;;;;;5.92;2.50;;;;;;;13.41;49.74;100746.77;1728455;81;21330;-67
2021/04/24 11:14:27;;;;;;;;;;;;;;;13.56;49.61;100748.94;1677033;82;21791;-65
2021/04/24 11:17:00;;;;;;;3.87;2.20;;;;;;;13.72;49.85;100745.20;1693856;82;20272;-66
2021/04/24 11:19:47;;;;;;;3.08;2.10;;;;;;;13.85;48.34;100741.27;1682467;82;21743;-69
2021/04/24 11:22:34;;;;;;;6.95;3.20;;;;;;;14.02;47.50;100740.49;1724414;81;21198;-67
2021/04/24 11:25:24;;;;;;;3.55;2.02;;;;;;;14.12;46.32;100736.02;1719715;81;21279;-66
2021/04/24 11:28:13;;;;;;;19.35;5.67;;;;;;;14.16;44.83;100741.31;1725680;81;21331;-68
2021/04/24 11:31:06;;;;;;;30.75;9.55;;;;;;;14.15;43.33;100732.27;1710226;82;21887;-66
2021/04/24 11:33:44;;;;;;;17.92;6.78;;;;;;;14.10;43.26;100735.81;1715511;81;21728;-67
2021/04/24 11:36:27;;;;;;;22.80;8.65;;;;;;;14.13;42.40;100727.16;1717524;81;21213;-67
2021/04/24 11:39:07;;;;;;;16.97;6.58;;;;;;;14.14;39.72;100719.58;1724959;82;21355;-67
2021/04/24 11:41:44;;;;;;;16.80;7.05;;;;;;;14.16;39.23;100718.13;1722931;81;21355;-68
2021/04/24 11:44:31;;;;;;;12.43;5.53;;;;;;;14.26;39.41;100708.86;1721465;81;22349;-65
2021/04/24 11:47:03;;;;;;;3.17;1.60;;;;;;;14.39;39.02;100698.80;1723670;81;21308;-67
2021/04/24 11:49:40;;;;;;;7.97;3.92;;;;;;;14.45;37.63;100698.22;1724431;81;21348;-64
2021/04/24 11:52:14;;;;;;;6.65;3.52;;;;;;;14.44;36.46;100695.23;1702672;81;21260;-67
2021/04/24 11:54:48;;;;;;;8.43;3.90;;;;;;;14.45;36.20;100687.68;1718889;81;21378;-68
2021/04/24 11:57:23;;;;;;;2.80;1.65;;;;;;;14.50;35.52;100682.77;1724568;81;21341;-66
2021/04/24 11:59:56;;;;;;;4.30;2.10;;;;;;;14.47;34.91;100677.81;1712520;83;21322;-69